createdAt,value
2022-08-27T00:02:17.740Z,8.95
2022-08-27T00:05:19.471Z,9.68
2022-08-27T00:08:20.798Z,9.63
2022-08-27T00:11:22.798Z,8.13
2022-08-27T00:14:24.772Z,9.13
2022-08-27T00:17:26.278Z,10.68
2022-08-27T00:20:28.310Z,9.90
2022-08-27T00:23:30.012Z,8.18
2022-08-27T00:26:31.397Z,8.27
2022-08-27T00:29:32.706Z,8.43
2022-08-27T00:32:34.129Z,8.00
2022-08-27T00:35:35.589Z,7.95
2022-08-27T00:38:38.509Z,8.10
2022-08-27T00:41:40.445Z,6.97
2022-08-27T00:44:41.717Z,7.75
2022-08-27T00:47:45.314Z,9.15
2022-08-27T00:50:48.590Z,7.88
2022-08-27T00:53:51.286Z,9.18
2022-08-27T00:56:52.697Z,8.10
2022-08-27T00:59:54.390Z,7.53
2022-08-27T01:02:55.701Z,8.98
2022-08-27T01:05:58.186Z,9.90
2022-08-27T01:09:03.110Z,7.80
2022-08-27T01:12:04.866Z,7.68
2022-08-27T01:15:08.407Z,8.18
2022-08-27T01:18:13.407Z,6.95
2022-08-27T01:21:30.693Z,8.48
2022-08-27T01:24:37.813Z,8.95
2022-08-27T01:27:39.409Z,8.65
2022-08-27T01:30:40.875Z,8.50
2022-08-27T01:33:52.955Z,8.13
2022-08-27T01:36:57.367Z,9.52
2022-08-27T01:39:59.424Z,9.20
2022-08-27T01:43:01.301Z,8.73
2022-08-27T01:46:02.619Z,8.32
2022-08-27T01:49:04.093Z,8.95
2022-08-27T01:52:05.459Z,9.32
2022-08-27T01:55:09.335Z,11.55
2022-08-27T01:58:14.112Z,9.13
2022-08-27T02:01:16.776Z,8.48
2022-08-27T02:04:18.260Z,11.63
2022-08-27T02:07:19.524Z,11.73
2022-08-27T02:10:25.614Z,11.13
2022-08-27T02:13:27.302Z,11.88
2022-08-27T02:16:28.756Z,10.93
2022-08-27T02:19:30.754Z,12.93
2022-08-27T02:22:32.049Z,10.43
2022-08-27T02:25:33.463Z,11.75
2022-08-27T02:28:35.850Z,10.23
2022-08-27T02:31:37.276Z,12.98
2022-08-27T02:34:38.613Z,11.05
2022-08-27T02:37:39.897Z,8.95
2022-08-27T02:40:41.261Z,10.77
2022-08-27T02:43:43.053Z,10.57
2022-08-27T02:46:44.367Z,11.50
2022-08-27T02:49:46.057Z,10.60
2022-08-27T02:52:47.509Z,11.90
2022-08-27T02:55:48.833Z,10.15
2022-08-27T02:58:50.131Z,11.48
2022-08-27T03:01:51.680Z,11.25
2022-08-27T03:04:53.047Z,9.80
2022-08-27T03:07:54.450Z,11.88
2022-08-27T03:10:56.868Z,14.18
2022-08-27T03:13:58.986Z,8.77
2022-08-27T03:17:20.292Z,10.40
2022-08-27T03:20:22.708Z,9.77
2022-08-27T03:23:25.154Z,10.52
2022-08-27T03:26:27.014Z,9.95
2022-08-27T03:29:28.320Z,7.93
2022-08-27T03:32:29.640Z,8.55
2022-08-27T03:35:31.039Z,9.40
2022-08-27T03:38:34.138Z,10.02
2022-08-27T03:41:43.805Z,7.45
2022-08-27T03:44:57.005Z,8.90
2022-08-27T03:47:58.297Z,8.32
2022-08-27T03:51:05.056Z,9.73
2022-08-27T03:54:06.542Z,9.40
2022-08-27T03:57:07.909Z,8.40
2022-08-27T04:00:14.173Z,10.15
2022-08-27T04:03:15.508Z,8.38
2022-08-27T04:06:16.943Z,9.23
2022-08-27T04:09:18.292Z,9.85
2022-08-27T04:12:19.554Z,11.02
2022-08-27T04:15:20.930Z,8.65
2022-08-27T04:18:22.412Z,8.20
2022-08-27T04:21:24.178Z,10.23
2022-08-27T04:24:25.486Z,9.50
2022-08-27T04:27:27.498Z,8.02
2022-08-27T04:30:28.959Z,8.10
2022-08-27T04:33:32.126Z,6.88
2022-08-27T04:36:33.502Z,7.43
2022-08-27T04:39:34.942Z,7.85
2022-08-27T04:42:36.413Z,6.72
2022-08-27T04:45:44.410Z,7.88
2022-08-27T04:48:45.672Z,10.15
2022-08-27T04:51:50.482Z,9.98
2022-08-27T04:54:51.999Z,7.63
2022-08-27T04:57:53.344Z,7.32
2022-08-27T05:00:56.356Z,9.73
2022-08-27T05:04:01.166Z,9.05
2022-08-27T05:07:02.450Z,8.05
2022-08-27T05:10:03.825Z,9.75
2022-08-27T05:13:05.181Z,8.02
2022-08-27T05:16:07.839Z,9.50
2022-08-27T05:19:10.473Z,10.90
2022-08-27T05:22:11.773Z,9.98
2022-08-27T05:25:13.140Z,8.95
2022-08-27T05:28:15.464Z,8.70
2022-08-27T05:31:17.765Z,9.57
2022-08-27T05:34:24.573Z,8.95
2022-08-27T05:37:28.553Z,9.35
2022-08-27T05:40:30.067Z,8.63
2022-08-27T05:43:32.178Z,8.80
2022-08-27T05:46:33.578Z,8.93
2022-08-27T05:49:34.959Z,13.50
2022-08-27T05:52:36.505Z,8.68
2022-08-27T05:55:39.097Z,7.50
2022-08-27T05:58:59.224Z,9.13
2022-08-27T06:02:00.627Z,9.38
2022-08-27T06:05:02.007Z,8.02
2022-08-27T06:08:04.017Z,8.98
2022-08-27T06:11:06.419Z,7.47
2022-08-27T06:14:09.351Z,8.52
2022-08-27T06:17:10.723Z,9.43
2022-08-27T06:20:12.120Z,9.68
2022-08-27T06:23:13.410Z,8.95
2022-08-27T06:26:16.355Z,9.32
2022-08-27T06:29:17.699Z,8.90
2022-08-27T06:32:20.018Z,9.80
2022-08-27T06:35:21.438Z,8.90
2022-08-27T06:38:22.717Z,8.07
2022-08-27T06:41:27.063Z,9.00
2022-08-27T06:44:29.452Z,9.05
2022-08-27T06:47:32.562Z,9.13
2022-08-27T06:50:40.642Z,9.35
2022-08-27T06:53:42.197Z,9.18
2022-08-27T06:56:44.499Z,8.30
2022-08-27T06:59:45.809Z,9.70
2022-08-27T07:02:47.089Z,8.40
2022-08-27T07:05:48.604Z,8.88
2022-08-27T07:08:53.320Z,8.43
2022-08-27T07:11:55.363Z,9.43
2022-08-27T07:14:56.674Z,7.35
2022-08-27T07:17:58.644Z,9.18
2022-08-27T07:21:00.535Z,8.55
2022-08-27T07:24:04.833Z,9.45
2022-08-27T07:27:06.861Z,7.57
2022-08-27T07:30:09.650Z,8.60
2022-08-27T07:33:11.631Z,9.95
2022-08-27T07:36:13.062Z,8.65
2022-08-27T07:39:16.601Z,8.65
2022-08-27T07:42:36.689Z,7.43
2022-08-27T07:45:44.473Z,6.70
2022-08-27T07:48:46.914Z,7.32
2022-08-27T07:51:48.875Z,9.10
2022-08-27T07:54:51.546Z,7.97
2022-08-27T07:57:52.952Z,6.72
2022-08-27T08:00:55.613Z,6.32
2022-08-27T08:03:56.929Z,6.95
2022-08-27T08:06:58.262Z,7.55
2022-08-27T08:09:59.958Z,8.48
2022-08-27T08:13:01.282Z,7.88
2022-08-27T08:16:02.894Z,7.25
2022-08-27T08:19:04.189Z,7.22
2022-08-27T08:22:06.064Z,6.07
2022-08-27T08:25:07.786Z,10.00
2022-08-27T08:28:14.405Z,7.95
2022-08-27T08:31:15.829Z,9.88
2022-08-27T08:34:18.344Z,8.20
2022-08-27T08:37:19.946Z,9.90
2022-08-27T08:40:28.285Z,11.73
2022-08-27T08:43:40.345Z,9.65
2022-08-27T08:46:48.502Z,9.88
2022-08-27T08:49:49.815Z,6.57
2022-08-27T08:52:57.771Z,6.70
2022-08-27T08:56:01.708Z,8.18
2022-08-27T08:59:10.841Z,6.72
2022-08-27T09:02:14.414Z,8.02
2022-08-27T09:08:34.172Z,7.15
2022-08-27T09:11:43.722Z,8.82
2022-08-27T09:14:53.434Z,7.10
2022-08-27T09:18:05.545Z,8.48
2022-08-27T09:21:27.455Z,7.35
2022-08-27T09:24:41.334Z,6.75
2022-08-27T09:27:42.915Z,8.20
2022-08-27T09:30:45.088Z,7.13
2022-08-27T09:33:56.193Z,7.35
2022-08-27T09:37:07.336Z,6.95
2022-08-27T09:40:23.039Z,7.20
2022-08-27T09:43:28.234Z,5.75
2022-08-27T09:46:29.830Z,6.90
2022-08-27T09:49:34.502Z,6.15
2022-08-27T09:52:45.116Z,6.32
2022-08-27T09:56:09.600Z,5.93
2022-08-27T09:59:26.770Z,6.75
2022-08-27T10:02:28.257Z,7.05
2022-08-27T10:05:36.795Z,6.35
2022-08-27T10:08:43.538Z,6.10
2022-08-27T10:11:49.659Z,6.00
2022-08-27T10:14:53.048Z,6.20
2022-08-27T10:21:12.211Z,5.25
2022-08-27T10:24:16.966Z,6.75
2022-08-27T10:27:24.680Z,5.57
2022-08-27T10:30:32.773Z,5.60
2022-08-27T10:33:34.054Z,7.55
2022-08-27T10:36:54.216Z,6.28
2022-08-27T10:40:11.054Z,6.30
2022-08-27T10:43:18.526Z,5.03
2022-08-27T10:46:50.469Z,5.32
2022-08-27T10:50:04.339Z,5.28
2022-08-27T10:53:10.345Z,5.18
2022-08-27T10:56:38.155Z,5.78
2022-08-27T10:59:48.934Z,6.63
2022-08-27T11:02:54.064Z,6.25
2022-08-27T11:05:55.965Z,6.35
2022-08-27T11:08:59.269Z,6.13
2022-08-27T11:15:30.627Z,8.82
2022-08-27T11:18:44.417Z,5.72
2022-08-27T11:21:51.725Z,6.43
2022-08-27T11:24:56.294Z,7.22
2022-08-27T11:27:57.858Z,6.70
2022-08-27T11:31:06.721Z,6.40
2022-08-27T11:34:21.839Z,7.53
2022-08-27T11:37:37.375Z,7.03
2022-08-27T11:40:50.977Z,6.65
2022-08-27T11:43:53.132Z,6.65
2022-08-27T11:46:56.465Z,6.07
2022-08-27T11:49:59.051Z,5.63
2022-08-27T11:53:01.949Z,5.65
2022-08-27T11:56:19.953Z,6.20
2022-08-27T11:59:22.873Z,5.78
2022-08-27T12:02:26.911Z,5.53
2022-08-27T12:05:48.506Z,6.68
2022-08-27T12:08:50.247Z,5.65
2022-08-27T12:12:09.869Z,5.15
2022-08-27T12:15:22.620Z,7.13
2022-08-27T12:18:51.485Z,5.28
2022-08-27T12:22:15.997Z,5.85
2022-08-27T12:25:21.125Z,5.72
2022-08-27T12:28:26.584Z,5.90
2022-08-27T12:31:29.015Z,6.70
2022-08-27T12:34:31.631Z,6.18
2022-08-27T12:37:37.802Z,5.97
2022-08-27T12:40:41.840Z,4.88
2022-08-27T12:43:43.473Z,5.55
2022-08-27T12:46:54.071Z,6.28
2022-08-27T12:49:57.717Z,6.00
2022-08-27T12:53:12.589Z,7.35
2022-08-27T12:56:29.305Z,7.95
2022-08-27T12:59:56.369Z,5.88
2022-08-27T13:03:13.009Z,4.65
2022-08-27T13:06:16.039Z,6.82
2022-08-27T13:09:25.369Z,4.40
2022-08-27T13:12:26.785Z,6.28
2022-08-27T13:15:28.300Z,5.40
2022-08-27T13:18:30.620Z,4.97
2022-08-27T13:21:35.487Z,5.32
2022-08-27T13:24:44.465Z,5.18
2022-08-27T13:27:51.620Z,4.82
2022-08-27T13:30:53.194Z,5.28
2022-08-27T13:33:58.644Z,4.68
2022-08-27T13:37:07.326Z,5.15
2022-08-27T13:40:10.262Z,5.88
2022-08-27T13:43:12.207Z,4.75
2022-08-27T13:46:14.405Z,4.85
2022-08-27T13:49:18.587Z,4.95
2022-08-27T13:52:30.671Z,4.63
2022-08-27T13:55:33.692Z,4.68
2022-08-27T13:58:36.002Z,5.45
2022-08-27T14:01:37.773Z,4.75
2022-08-27T14:04:43.747Z,6.35
2022-08-27T14:07:47.477Z,6.38
2022-08-27T14:11:09.076Z,6.35
2022-08-27T14:14:10.405Z,4.47
2022-08-27T14:17:25.732Z,5.57
2022-08-27T14:20:29.252Z,5.72
2022-08-27T14:23:32.536Z,6.43
2022-08-27T14:26:34.345Z,4.63
2022-08-27T14:29:36.041Z,5.22
2022-08-27T14:32:38.038Z,5.25
2022-08-27T14:35:40.257Z,4.70
2022-08-27T14:38:42.701Z,6.53
2022-08-27T14:41:43.998Z,5.35
2022-08-27T14:44:46.195Z,5.28
2022-08-27T14:47:47.471Z,5.13
2022-08-27T14:50:48.827Z,4.57
2022-08-27T14:53:51.312Z,5.30
2022-08-27T14:56:54.210Z,4.75
2022-08-27T14:59:55.766Z,4.88
2022-08-27T15:02:57.862Z,4.45
2022-08-27T15:05:59.169Z,5.40
2022-08-27T15:09:00.715Z,5.05
2022-08-27T15:12:03.216Z,4.00
2022-08-27T15:15:05.126Z,4.50
2022-08-27T15:18:06.813Z,5.28
2022-08-27T15:21:08.160Z,5.80
2022-08-27T15:24:17.364Z,4.10
2022-08-27T15:27:18.726Z,5.30
2022-08-27T15:30:24.977Z,5.90
2022-08-27T15:33:26.426Z,7.10
2022-08-27T15:36:27.870Z,4.88
2022-08-27T15:39:29.152Z,5.18
2022-08-27T15:42:32.914Z,5.10
2022-08-27T15:45:34.280Z,4.45
2022-08-27T15:48:35.683Z,4.50
2022-08-27T15:51:38.037Z,4.43
2022-08-27T15:54:39.702Z,6.45
2022-08-27T15:57:40.989Z,5.40
2022-08-27T16:00:43.217Z,4.75
2022-08-27T16:03:45.991Z,4.22
2022-08-27T16:06:49.027Z,4.15
2022-08-27T16:09:50.432Z,4.82
2022-08-27T16:12:51.771Z,5.05
2022-08-27T16:15:54.243Z,4.80
2022-08-27T16:18:55.719Z,5.90
2022-08-27T16:21:57.018Z,5.68
2022-08-27T16:24:58.294Z,5.53
2022-08-27T16:28:01.514Z,6.72
2022-08-27T16:31:03.264Z,4.97
2022-08-27T16:34:08.986Z,5.57
2022-08-27T16:37:10.461Z,5.07
2022-08-27T16:40:13.218Z,6.50
2022-08-27T16:43:15.818Z,5.07
2022-08-27T16:46:17.172Z,5.05
2022-08-27T16:49:37.237Z,5.15
2022-08-27T16:52:38.503Z,5.50
2022-08-27T16:55:40.448Z,5.30
2022-08-27T16:58:41.707Z,4.88
2022-08-27T17:01:43.461Z,4.90
2022-08-27T17:04:49.265Z,6.18
2022-08-27T17:08:00.136Z,4.72
2022-08-27T17:11:02.266Z,5.25
2022-08-27T17:14:04.467Z,4.30
2022-08-27T17:17:05.827Z,4.65
2022-08-27T17:20:08.509Z,5.53
2022-08-27T17:23:15.023Z,6.57
2022-08-27T17:26:16.370Z,4.80
2022-08-27T17:29:17.714Z,4.90
2022-08-27T17:32:19.074Z,5.20
2022-08-27T17:35:20.412Z,3.83
2022-08-27T17:38:21.902Z,5.25
2022-08-27T17:41:33.928Z,4.32
2022-08-27T17:44:36.340Z,6.10
2022-08-27T17:47:37.673Z,6.30
2022-08-27T17:50:39.269Z,5.10
2022-08-27T17:53:47.011Z,5.80
2022-08-27T17:56:48.870Z,5.82
2022-08-27T17:59:50.581Z,4.53
2022-08-27T18:02:53.548Z,4.80
2022-08-27T18:05:54.833Z,4.00
2022-08-27T18:08:56.592Z,4.65
2022-08-27T18:11:58.497Z,4.57
2022-08-27T18:14:59.750Z,4.72
2022-08-27T18:18:01.381Z,5.50
2022-08-27T18:21:02.666Z,4.85
2022-08-27T18:24:04.423Z,4.10
2022-08-27T18:27:05.927Z,5.07
2022-08-27T18:30:08.296Z,4.43
2022-08-27T18:33:10.025Z,5.65
2022-08-27T18:36:11.393Z,4.78
2022-08-27T18:39:12.771Z,4.13
2022-08-27T18:42:14.593Z,5.30
2022-08-27T18:45:17.531Z,4.88
2022-08-27T18:48:21.534Z,4.63
2022-08-27T18:51:22.982Z,6.05
2022-08-27T18:54:24.842Z,4.88
2022-08-27T18:57:26.421Z,6.80
2022-08-27T19:00:28.590Z,4.88
2022-08-27T19:03:34.162Z,4.68
2022-08-27T19:06:36.058Z,5.18
2022-08-27T19:09:37.535Z,4.18
2022-08-27T19:12:38.821Z,4.80
2022-08-27T19:15:42.482Z,4.68
2022-08-27T19:18:44.502Z,4.10
2022-08-27T19:21:50.686Z,5.30
2022-08-27T19:24:53.494Z,4.43
2022-08-27T19:27:54.993Z,4.00
2022-08-27T19:30:56.557Z,4.38
2022-08-27T19:34:00.122Z,3.92
2022-08-27T19:37:01.835Z,4.28
2022-08-27T19:40:03.794Z,3.83
2022-08-27T19:43:05.209Z,4.32
2022-08-27T19:46:07.600Z,4.20
2022-08-27T19:49:09.069Z,4.18
2022-08-27T19:52:10.641Z,6.93
2022-08-27T19:55:14.343Z,4.30
2022-08-27T19:58:16.747Z,3.65
2022-08-27T20:01:18.528Z,5.43
2022-08-27T20:04:22.728Z,6.38
2022-08-27T20:07:24.560Z,4.38
2022-08-27T20:10:35.927Z,4.40
2022-08-27T20:13:38.235Z,5.55
2022-08-27T20:16:51.693Z,5.82
2022-08-27T20:19:53.019Z,5.68
2022-08-27T20:22:55.699Z,5.80
2022-08-27T20:26:01.259Z,4.45
2022-08-27T20:29:03.355Z,4.45
2022-08-27T20:32:04.748Z,4.38
2022-08-27T20:35:06.687Z,4.63
2022-08-27T20:38:08.056Z,4.70
2022-08-27T20:41:09.390Z,4.72
2022-08-27T20:44:10.768Z,5.22
2022-08-27T20:47:12.445Z,4.35
2022-08-27T20:50:14.448Z,5.07
2022-08-27T20:53:16.069Z,4.72
2022-08-27T20:56:17.764Z,4.55
2022-08-27T20:59:37.638Z,5.05
2022-08-27T21:02:40.293Z,4.72
2022-08-27T21:05:43.544Z,5.88
2022-08-27T21:08:44.854Z,4.20
2022-08-27T21:11:46.124Z,5.60
2022-08-27T21:14:47.413Z,5.03
2022-08-27T21:17:48.811Z,4.50
2022-08-27T21:20:50.126Z,4.55
2022-08-27T21:23:51.529Z,6.18
2022-08-27T21:26:52.849Z,4.60
2022-08-27T21:29:54.158Z,5.57
2022-08-27T21:32:55.894Z,5.25
2022-08-27T21:35:57.270Z,4.68
2022-08-27T21:38:59.442Z,4.47
2022-08-27T21:42:01.496Z,5.70
2022-08-27T21:45:03.120Z,6.07
2022-08-27T21:48:04.798Z,6.70
2022-08-27T21:51:07.337Z,3.78
2022-08-27T21:54:08.633Z,4.50
2022-08-27T21:57:10.670Z,4.07
2022-08-27T22:00:35.612Z,5.72
2022-08-27T22:03:37.054Z,5.07
2022-08-27T22:06:38.349Z,5.28
2022-08-27T22:09:39.646Z,4.50
2022-08-27T22:12:41.235Z,4.53
2022-08-27T22:15:42.675Z,3.63
2022-08-27T22:18:43.961Z,5.43
2022-08-27T22:21:45.834Z,5.18
2022-08-27T22:24:47.117Z,4.78
2022-08-27T22:27:48.495Z,5.93
2022-08-27T22:30:49.778Z,3.80
2022-08-27T22:33:51.176Z,4.53
2022-08-27T22:36:52.905Z,6.07
2022-08-27T22:39:55.056Z,5.40
2022-08-27T22:42:57.309Z,5.38
2022-08-27T22:45:58.751Z,4.05
2022-08-27T22:49:00.099Z,5.10
2022-08-27T22:52:01.451Z,4.13
2022-08-27T22:55:03.163Z,5.55
2022-08-27T22:58:04.711Z,5.18
2022-08-27T23:01:06.094Z,6.70
2022-08-27T23:04:07.858Z,4.05
2022-08-27T23:07:09.214Z,4.20
2022-08-27T23:10:11.752Z,5.30
2022-08-27T23:13:13.468Z,3.97
2022-08-27T23:16:15.817Z,6.18
2022-08-27T23:19:17.537Z,5.40
2022-08-27T23:22:18.878Z,4.40
2022-08-27T23:25:41.232Z,5.18
2022-08-27T23:28:45.167Z,6.13
2022-08-27T23:31:46.534Z,4.65
2022-08-27T23:34:47.947Z,4.88
2022-08-27T23:37:49.997Z,5.25
2022-08-27T23:40:52.072Z,6.25
2022-08-27T23:43:54.186Z,5.03
2022-08-27T23:46:55.911Z,5.15
2022-08-27T23:49:57.286Z,4.90
2022-08-27T23:52:58.636Z,4.72
2022-08-27T23:55:59.922Z,5.05
2022-08-27T23:59:01.216Z,4.43
